Terminal Aerodrome Forecast
Issued by NWS

Home | Current Version | Previous Version | Graphics & Text | Print | Product List | Glossary On
Versions: 1 2 3 4 5 6 7 8 9 10 11 12 13 14 15 16 17 18 19 20 21 22 23 24 25 26 27 28 29 30 31 32 33 34 35
000
FTUS43 KGRB 251414 AAA
TAFATW
TAF AMD
KATW 251414Z 2514/2612 06009G15KT 1SM BR OVC004
      TEMPO 2514/2517 VV002
     FM251700 10010G17KT P6SM SCT100 BKN200
     FM260000 12007KT 6SM -SHRA BR BKN035 OVC100
      TEMPO 2601/2605 2SM +TSRA BKN008 OVC020CB
     FM260700 18007KT 3SM BR SCT005 BKN010=

USA.gov is the U.S. government's official web portal to all federal, state and local government web resources and services.